Hauptseite
METAR-TAF:

METAR-TAF

Flughäfen :

Flugplatz Laupheim

Laupheim, Deutschland

Breite: 48-13N, Länge: 009-55E, Höhe: 538 m

Beobachtung

Neuester Wetterbericht von vor 1 Stunde und 3 Minuten, um 03:20 UTC
Wind 6 kt aus Nordost
Temperatur -4°C
Luftfeuchtigkeit 93%
Luftdruck 1017 hPa
Sichtweite: 4000 m
Geschlossene Wolkendecke in der Höhe von 500 ft
feuchter Dunst

METAR: ETHL 210320Z 04006KT 4000 BR OVC005 M04/M05 Q1017 YLO

Zeit: 05:23 (04:23 UTC)


TAF: fehlend

Wetterbeobachtungen und Prognosen von mehr als 4000 Flughäfen (METAR und TAF Bericht).

Die verfügbaren Stationen werden durch gelbe und rote Markierungen auf der Karte dargestellt.

Führen Sie die Maus auf sie, um den Namen der Station zu sehen.

Darauf klicken, um die Beobachtung von Wetterbeobachtungen und Prognosen zu sehen.

Um die Karte zu ändern : klicken Sie auf den grünen Tasten mit einem schwarzen Kreuz Zum Vergrößern, auf den grünen Button mit einem Gedankenstrich zu verkleinern, oder auf die grünen Pfeile für benachbarte Karten.


METAR-TAF: